Time;durP1;ratioP1;P1;durP2;ratioP2;P2;SDS_P1;SDS_P2;PMS_P1;PMS_P2;Temp;Humidity;BMP_temperature;BMP_pressure;BME280_temperature;BME280_humidity;BME280_pressure;Samples;Min_cycle;Max_cycle;Signal;HPM_P1;HPM_P2
2023/09/10 00:01:54;;;;;;;798.95;550.80;;;;;;;;;;5017029;28;20919;-72
2023/09/10 00:04:21;;;;;;;597.70;540.80;;;;;;;;;;5021349;28;20441;-72
2023/09/10 00:06:48;;;;;;;786.08;586.13;;;;;;;;;;5023723;28;21945;-72
2023/09/10 00:09:16;;;;;;;731.38;440.13;;;;;;;;;;5026472;28;20494;-72
2023/09/10 00:11:43;;;;;;;754.42;469.75;;;;;;;;;;5017976;28;20469;-72
2023/09/10 00:14:10;;;;;;;769.60;519.92;;;;;;;;;;5027731;28;20441;-72
2023/09/10 00:16:37;;;;;;;761.00;507.33;;;;;;;;;;5028099;28;20848;-72
2023/09/10 00:19:04;;;;;;;767.53;503.73;;;;;;;;;;5030749;28;20515;-72
2023/09/10 00:21:31;;;;;;;772.42;513.67;;;;;;;;;;5022380;28;20423;-71
2023/09/10 00:23:58;;;;;;;743.28;480.00;;;;;;;;;;5024705;28;21176;-71
2023/09/10 00:26:26;;;;;;;752.90;491.02;;;;;;;;;;5022701;28;20431;-71
2023/09/10 00:28:54;;;;;;;386.85;351.38;;;;;;;;;;5027296;28;20501;-71
2023/09/10 00:31:21;;;;;;;780.03;560.33;;;;;;;;;;5017065;28;20443;-71
2023/09/10 00:33:48;;;;;;;703.13;438.73;;;;;;;;;;5015501;28;20485;-71
2023/09/10 00:36:15;;;;;;;786.47;530.35;;;;;;;;;;5024757;28;20845;-70
2023/09/10 00:38:42;;;;;;;766.55;570.55;;;;;;;;;;5022204;28;20443;-71
2023/09/10 00:41:09;;;;;;;773.60;520.55;;;;;;;;;;5025394;28;20431;-71
2023/09/10 00:43:37;;;;;;;759.77;484.60;;;;;;;;;;5011000;28;22270;-71
2023/09/10 00:46:10;;;;;;;770.47;502.40;;;;;;;;;;5021900;28;20434;-70
2023/09/10 00:48:38;;;;;;;790.10;522.70;;;;;;;;;;5037875;28;20514;-70
2023/09/10 00:51:05;;;;;;;756.20;475.77;;;;;;;;;;5029200;28;20427;-70
2023/09/10 00:53:32;;;;;;;683.30;520.72;;;;;;;;;;5023852;28;20526;-70
2023/09/10 00:56:00;;;;;;;708.53;560.50;;;;;;;;;;5022260;28;21005;-71
2023/09/10 00:58:28;;;;;;;794.53;537.38;;;;;;;;;;5025680;28;20439;-70
2023/09/10 01:00:55;;;;;;;785.28;553.60;;;;;;;;;;5026718;28;20947;-70
2023/09/10 01:03:23;;;;;;;778.90;514.27;;;;;;;;;;5024898;28;20462;-71
2023/09/10 01:05:50;;;;;;;770.45;503.40;;;;;;;;;;5030185;28;20926;-70
2023/09/10 01:08:17;;;;;;;768.03;491.07;;;;;;;;;;5024023;28;20523;-71
2023/09/10 01:10:58;;;;;;;795.83;529.17;;;;;;;;;;5026552;28;20435;-70
2023/09/10 01:13:51;;;;;;;787.27;517.83;;;;;;;;;;5025674;28;20440;-70
2023/09/10 01:16:31;;;;;;;800.10;542.35;;;;;;;;;;5024436;28;20921;-71
2023/09/10 01:19:04;;;;;;;548.95;490.38;;;;;;;;;;5031531;28;20458;-71
2023/09/10 01:21:36;;;;;;;797.47;536.15;;;;;;;;;;5027343;28;20525;-70
2023/09/10 01:24:03;;;;;;;782.78;526.30;;;;;;;;;;5027606;28;20790;-71
2023/09/10 01:26:30;;;;;;;791.60;529.83;;;;;;;;;;5025280;28;20435;-71
2023/09/10 01:28:57;;;;;;;760.35;481.33;;;;;;;;;;5026252;28;21184;-71
2023/09/10 01:31:28;;;;;;;760.60;490.13;;;;;;;;;;5028294;28;20609;-71
2023/09/10 01:33:57;;;;;;;757.78;485.77;;;;;;;;;;5027689;28;20434;-71
2023/09/10 01:36:54;;;;;;;713.70;440.40;;;;;;;;;;5023617;28;20470;-71
2023/09/10 01:39:40;;;;;;;739.97;479.23;;;;;;;;;;5001815;28;20459;-71
2023/09/10 01:42:08;;;;;;;736.37;478.63;;;;;;;;;;5003315;28;20524;-70
2023/09/10 01:44:36;;;;;;;742.85;489.50;;;;;;;;;;5002982;28;20524;-70
2023/09/10 01:47:04;;;;;;;764.17;514.65;;;;;;;;;;5004480;28;20881;-71
2023/09/10 01:49:31;;;;;;;772.10;518.42;;;;;;;;;;4997060;28;20585;-71
2023/09/10 01:51:59;;;;;;;761.33;534.08;;;;;;;;;;5006827;28;20441;-70
2023/09/10 01:54:28;;;;;;;783.20;520.28;;;;;;;;;;5003367;28;20492;-70
2023/09/10 01:56:58;;;;;;;785.63;533.85;;;;;;;;;;5004143;28;20439;-70
2023/09/10 01:59:27;;;;;;;792.30;534.17;;;;;;;;;;5002447;28;20520;-70
2023/09/10 02:02:00;;;;;;;700.38;535.63;;;;;;;;;;5003621;28;20433;-70
2023/09/10 02:04:27;;;;;;;668.63;545.20;;;;;;;;;;5004257;28;20444;-70
2023/09/10 02:06:54;;;;;;;471.37;427.83;;;;;;;;;;5004838;28;20428;-70
2023/09/10 02:09:21;;;;;;;375.67;342.80;;;;;;;;;;5003860;28;20436;-70
2023/09/10 02:11:49;;;;;;;118.83;110.83;;;;;;;;;;5005403;28;20436;-70
2023/09/10 02:14:16;;;;;;;69.70;64.85;;;;;;;;;;5008692;28;20641;-70
2023/09/10 02:16:46;;;;;;;84.70;78.65;;;;;;;;;;5018747;28;20507;-70
2023/09/10 02:19:14;;;;;;;268.20;246.07;;;;;;;;;;5027698;28;20793;-70
2023/09/10 02:21:41;;;;;;;378.17;344.40;;;;;;;;;;5028927;28;20433;-70
2023/09/10 02:24:08;;;;;;;49.80;46.25;;;;;;;;;;5036249;28;20848;-70
2023/09/10 02:26:35;;;;;;;87.65;81.13;;;;;;;;;;5027320;28;20431;-70
2023/09/10 02:29:06;;;;;;;13.18;9.13;;;;;;;;;;5029722;28;20429;-70
2023/09/10 02:31:33;;;;;;;237.18;217.90;;;;;;;;;;5025779;28;20462;-70
2023/09/10 02:34:03;;;;;;;46.33;42.60;;;;;;;;;;5027731;28;21008;-69
2023/09/10 02:36:33;;;;;;;235.13;214.13;;;;;;;;;;5025222;28;20444;-70
2023/09/10 02:39:00;;;;;;;10.93;8.93;;;;;;;;;;5028862;28;20445;-70
2023/09/10 02:41:27;;;;;;;15.10;10.90;;;;;;;;;;5029286;28;20886;-70
2023/09/10 02:43:57;;;;;;;14.63;10.63;;;;;;;;;;5025720;28;20431;-70
2023/09/10 02:46:26;;;;;;;12.32;9.77;;;;;;;;;;5027360;28;20423;-70
2023/09/10 02:48:53;;;;;;;14.45;9.82;;;;;;;;;;5022452;28;20427;-70
2023/09/10 02:51:20;;;;;;;14.20;9.87;;;;;;;;;;5030758;28;20435;-70
2023/09/10 02:53:48;;;;;;;14.50;10.63;;;;;;;;;;5024955;28;20817;-70
2023/09/10 02:56:15;;;;;;;14.68;11.38;;;;;;;;;;5025593;28;20430;-70
2023/09/10 02:58:43;;;;;;;14.93;11.35;;;;;;;;;;5029716;28;20438;-70
2023/09/10 03:01:10;;;;;;;14.70;11.20;;;;;;;;;;5026891;28;20426;-70
2023/09/10 03:03:37;;;;;;;13.55;10.43;;;;;;;;;;5026253;28;20431;-70
2023/09/10 03:06:11;;;;;;;12.52;9.98;;;;;;;;;;5026264;28;20522;-70
2023/09/10 03:08:38;;;;;;;12.25;10.38;;;;;;;;;;5043700;28;20435;-69
2023/09/10 03:11:09;;;;;;;11.50;10.07;;;;;;;;;;5056707;28;20481;-69
2023/09/10 03:13:37;;;;;;;11.73;9.38;;;;;;;;;;5020460;28;20429;-70
2023/09/10 03:16:04;;;;;;;10.88;8.98;;;;;;;;;;5018431;28;20442;-70
2023/09/10 03:18:31;;;;;;;9.80;8.77;;;;;;;;;;5024667;28;20458;-70
2023/09/10 03:21:01;;;;;;;10.75;8.57;;;;;;;;;;5024944;28;20879;-70
2023/09/10 03:23:28;;;;;;;10.35;8.52;;;;;;;;;;5023905;28;20446;-70
2023/09/10 03:25:55;;;;;;;10.55;8.38;;;;;;;;;;5027164;28;20489;-70
2023/09/10 03:28:22;;;;;;;11.52;8.13;;;;;;;;;;5026862;28;20466;-70
2023/09/10 03:30:50;;;;;;;9.07;8.10;;;;;;;;;;5024645;28;20536;-70
2023/09/10 03:33:17;;;;;;;10.45;8.30;;;;;;;;;;5026783;28;20510;-70
2023/09/10 03:35:44;;;;;;;11.07;9.05;;;;;;;;;;5024038;28;21042;-70
2023/09/10 03:38:14;;;;;;;12.75;9.23;;;;;;;;;;5025392;28;20485;-70
2023/09/10 03:40:41;;;;;;;12.33;9.87;;;;;;;;;;5026013;28;20892;-70
2023/09/10 03:43:11;;;;;;;25.67;23.10;;;;;;;;;;5025347;28;20431;-71
2023/09/10 03:45:38;;;;;;;12.60;10.65;;;;;;;;;;5026191;28;20427;-70
2023/09/10 03:48:05;;;;;;;13.15;10.13;;;;;;;;;;5024340;28;20459;-70
2023/09/10 03:50:33;;;;;;;13.95;10.00;;;;;;;;;;5025753;28;20582;-70
2023/09/10 03:53:00;;;;;;;11.03;8.50;;;;;;;;;;5024825;28;20462;-69
2023/09/10 03:55:27;;;;;;;11.27;8.80;;;;;;;;;;5040664;28;20438;-70
2023/09/10 03:57:54;;;;;;;11.07;9.20;;;;;;;;;;5024370;28;20527;-70
2023/09/10 04:00:21;;;;;;;82.70;73.78;;;;;;;;;;5025390;28;20430;-71
2023/09/10 04:02:48;;;;;;;80.13;71.70;;;;;;;;;;5022699;28;20983;-71
2023/09/10 04:05:16;;;;;;;11.15;8.43;;;;;;;;;;5025578;28;20438;-71
2023/09/10 04:07:43;;;;;;;13.05;9.45;;;;;;;;;;5024098;28;20509;-70
2023/09/10 04:10:14;;;;;;;13.95;10.27;;;;;;;;;;5029602;28;20440;-70
2023/09/10 04:12:42;;;;;;;734.00;532.42;;;;;;;;;;5026515;28;20431;-71
2023/09/10 04:15:09;;;;;;;21.10;19.02;;;;;;;;;;5023595;28;20469;-70
2023/09/10 04:17:36;;;;;;;333.40;301.48;;;;;;;;;;5023856;28;20489;-71
2023/09/10 04:20:07;;;;;;;11.18;8.60;;;;;;;;;;5018819;28;20448;-70
2023/09/10 04:22:34;;;;;;;75.03;68.28;;;;;;;;;;5023896;28;20966;-71
2023/09/10 04:25:04;;;;;;;13.73;12.38;;;;;;;;;;5018607;28;21036;-70
2023/09/10 04:27:34;;;;;;;553.08;490.42;;;;;;;;;;5027737;28;20437;-70
2023/09/10 04:30:02;;;;;;;21.75;18.75;;;;;;;;;;5039259;28;20949;-71
2023/09/10 04:32:30;;;;;;;776.53;549.17;;;;;;;;;;5035427;28;20465;-71
2023/09/10 04:34:57;;;;;;;788.55;499.65;;;;;;;;;;5038545;28;20427;-70
2023/09/10 04:37:24;;;;;;;10.50;9.10;;;;;;;;;;5023164;28;20439;-70
2023/09/10 04:39:52;;;;;;;13.77;9.63;;;;;;;;;;5022327;28;20520;-70
2023/09/10 04:42:19;;;;;;;25.27;23.17;;;;;;;;;;5024614;28;20507;-70
2023/09/10 04:44:47;;;;;;;13.27;9.25;;;;;;;;;;5027860;28;20962;-70
2023/09/10 04:47:14;;;;;;;11.75;8.93;;;;;;;;;;5027823;28;21163;-70
2023/09/10 04:49:42;;;;;;;12.13;9.60;;;;;;;;;;5023972;28;20431;-70
2023/09/10 04:52:09;;;;;;;16.45;10.32;;;;;;;;;;5019824;28;20443;-70
2023/09/10 04:54:36;;;;;;;13.37;10.37;;;;;;;;;;5027404;28;20473;-70
2023/09/10 04:57:03;;;;;;;15.47;11.30;;;;;;;;;;5023497;28;20450;-71
2023/09/10 04:59:32;;;;;;;274.30;249.70;;;;;;;;;;5030030;28;20461;-70
2023/09/10 05:02:00;;;;;;;263.95;240.52;;;;;;;;;;5024604;28;20534;-70
2023/09/10 05:04:27;;;;;;;745.40;479.80;;;;;;;;;;5029420;28;20431;-70
2023/09/10 05:06:55;;;;;;;190.90;146.05;;;;;;;;;;5024212;28;20472;-70
2023/09/10 05:09:22;;;;;;;296.30;269.63;;;;;;;;;;5026492;28;20854;-70
2023/09/10 05:11:49;;;;;;;18.85;16.85;;;;;;;;;;5022920;28;20828;-70
2023/09/10 05:14:17;;;;;;;259.85;236.02;;;;;;;;;;5025446;28;20442;-70
2023/09/10 05:16:44;;;;;;;713.40;438.80;;;;;;;;;;5023188;28;20439;-70
2023/09/10 05:19:11;;;;;;;699.95;409.27;;;;;;;;;;5025650;28;21155;-71
2023/09/10 05:21:39;;;;;;;614.35;445.80;;;;;;;;;;5042601;28;20588;-71
2023/09/10 05:24:07;;;;;;;499.60;401.80;;;;;;;;;;5029698;28;20462;-70
2023/09/10 05:26:34;;;;;;;724.70;438.45;;;;;;;;;;5049184;28;20464;-71
2023/09/10 05:29:02;;;;;;;11.55;7.43;;;;;;;;;;5020953;28;20493;-71
2023/09/10 05:31:29;;;;;;;582.63;357.10;;;;;;;;;;5022485;28;20522;-71
2023/09/10 05:33:56;;;;;;;10.52;8.50;;;;;;;;;;5035320;28;20436;-71
2023/09/10 05:36:28;;;;;;;30.58;27.60;;;;;;;;;;5042440;28;21021;-70
2023/09/10 05:38:55;;;;;;;17.42;15.77;;;;;;;;;;5030548;28;20437;-70
2023/09/10 05:41:26;;;;;;;8.95;7.68;;;;;;;;;;5020993;28;20506;-71
2023/09/10 05:43:53;;;;;;;9.43;8.40;;;;;;;;;;5022047;28;20462;-70
2023/09/10 05:46:23;;;;;;;11.07;8.60;;;;;;;;;;5020978;28;20442;-70
2023/09/10 05:48:50;;;;;;;10.60;8.65;;;;;;;;;;5020335;28;20418;-70
2023/09/10 05:51:20;;;;;;;147.45;134.75;;;;;;;;;;5026966;28;20472;-70
2023/09/10 05:53:48;;;;;;;11.40;9.45;;;;;;;;;;5023904;28;20574;-70
2023/09/10 05:56:15;;;;;;;11.48;8.77;;;;;;;;;;5020343;28;20442;-70
2023/09/10 05:58:43;;;;;;;8.88;7.97;;;;;;;;;;5021670;28;20449;-70
2023/09/10 06:01:10;;;;;;;10.68;8.40;;;;;;;;;;5046900;28;20485;-69
2023/09/10 06:03:37;;;;;;;8.82;7.85;;;;;;;;;;5027987;28;20438;-70
2023/09/10 06:06:08;;;;;;;792.10;536.75;;;;;;;;;;5030332;28;20437;-70
2023/09/10 06:08:35;;;;;;;836.17;560.15;;;;;;;;;;5019008;28;20437;-70
2023/09/10 06:11:02;;;;;;;610.38;389.17;;;;;;;;;;5038639;28;20500;-70
2023/09/10 06:13:30;;;;;;;850.05;584.38;;;;;;;;;;5030584;28;20440;-71
2023/09/10 06:16:01;;;;;;;870.58;603.00;;;;;;;;;;5029338;28;20946;-70
2023/09/10 06:18:28;;;;;;;949.43;698.43;;;;;;;;;;5022904;28;20435;-70
2023/09/10 06:20:55;;;;;;;920.75;679.92;;;;;;;;;;5025805;28;20431;-70
2023/09/10 06:23:23;;;;;;;904.75;667.30;;;;;;;;;;5025465;28;20519;-70
2023/09/10 06:25:50;;;;;;;899.03;657.50;;;;;;;;;;5032220;28;20504;-70
2023/09/10 06:28:18;;;;;;;907.20;670.92;;;;;;;;;;5024671;28;20431;-70
2023/09/10 06:30:45;;;;;;;898.10;654.67;;;;;;;;;;5025951;28;20443;-69
2023/09/10 06:33:12;;;;;;;906.05;676.92;;;;;;;;;;5031115;28;20839;-70
2023/09/10 06:35:39;;;;;;;933.65;725.35;;;;;;;;;;5030720;28;20442;-70
2023/09/10 06:38:07;;;;;;;930.50;719.53;;;;;;;;;;5027050;28;20901;-71
2023/09/10 06:40:36;;;;;;;768.03;599.30;;;;;;;;;;5025777;28;20514;-69
2023/09/10 06:43:08;;;;;;;908.17;714.05;;;;;;;;;;5026824;28;20514;-70
2023/09/10 06:45:36;;;;;;;912.45;671.92;;;;;;;;;;5024556;28;20426;-69
2023/09/10 06:48:03;;;;;;;905.33;623.08;;;;;;;;;;5028121;28;20506;-71
2023/09/10 06:50:31;;;;;;;890.67;704.53;;;;;;;;;;5023908;28;20427;-70
2023/09/10 06:52:58;;;;;;;910.53;737.47;;;;;;;;;;5024753;28;20509;-70
2023/09/10 06:55:25;;;;;;;925.42;720.13;;;;;;;;;;5022701;28;20516;-70
2023/09/10 06:57:53;;;;;;;904.75;729.53;;;;;;;;;;5031626;28;20469;-70
2023/09/10 07:00:20;;;;;;;896.33;716.35;;;;;;;;;;5021068;28;20433;-70
2023/09/10 07:02:47;;;;;;;902.93;716.97;;;;;;;;;;5027991;28;21236;-70
2023/09/10 07:05:15;;;;;;;906.90;727.88;;;;;;;;;;5022536;28;20485;-69
2023/09/10 07:07:42;;;;;;;904.78;721.17;;;;;;;;;;5024526;28;20552;-70
2023/09/10 07:10:10;;;;;;;906.47;729.00;;;;;;;;;;5025033;28;20466;-70
2023/09/10 07:12:37;;;;;;;911.22;737.50;;;;;;;;;;5031076;28;20425;-70
2023/09/10 07:15:11;;;;;;;931.08;764.90;;;;;;;;;;5025357;28;20525;-70
2023/09/10 07:17:38;;;;;;;930.72;768.45;;;;;;;;;;5031361;28;20437;-70
2023/09/10 07:20:05;;;;;;;922.67;749.42;;;;;;;;;;5029406;28;20495;-70
2023/09/10 07:22:32;;;;;;;923.80;759.20;;;;;;;;;;5022927;28;20431;-71
2023/09/10 07:24:59;;;;;;;923.38;761.83;;;;;;;;;;5020832;28;20519;-67
2023/09/10 07:27:27;;;;;;;928.70;767.85;;;;;;;;;;5021475;28;20906;-68
2023/09/10 07:29:54;;;;;;;919.70;755.65;;;;;;;;;;5019818;28;20478;-69
2023/09/10 07:32:28;;;;;;;912.22;745.50;;;;;;;;;;5030440;28;20905;-67
2023/09/10 07:34:55;;;;;;;915.90;750.47;;;;;;;;;;5029909;28;20438;-66
2023/09/10 07:37:23;;;;;;;907.75;741.30;;;;;;;;;;5025396;28;20466;-67
2023/09/10 07:39:50;;;;;;;915.88;754.17;;;;;;;;;;5028892;28;20474;-67
2023/09/10 07:42:17;;;;;;;916.67;757.50;;;;;;;;;;5033264;28;20445;-69
2023/09/10 07:44:44;;;;;;;919.50;760.28;;;;;;;;;;5052654;28;20439;-69
2023/09/10 07:47:12;;;;;;;935.45;785.88;;;;;;;;;;5023574;28;20433;-69
2023/09/10 07:49:39;;;;;;;926.92;774.78;;;;;;;;;;5016591;28;21302;-69
2023/09/10 07:52:06;;;;;;;938.60;801.45;;;;;;;;;;5026934;28;20467;-69
2023/09/10 07:54:37;;;;;;;926.03;779.17;;;;;;;;;;5019907;28;20809;-69
2023/09/10 07:57:04;;;;;;;929.33;784.50;;;;;;;;;;5054142;28;20478;-69
2023/09/10 07:59:31;;;;;;;936.77;792.77;;;;;;;;;;5029324;28;20431;-70
2023/09/10 08:02:01;;;;;;;936.97;799.60;;;;;;;;;;5048477;28;20986;-70
2023/09/10 08:04:28;;;;;;;946.58;814.03;;;;;;;;;;5026252;28;20441;-69
2023/09/10 08:06:56;;;;;;;937.42;800.13;;;;;;;;;;5027977;28;20462;-69
2023/09/10 08:09:23;;;;;;;941.28;805.05;;;;;;;;;;5022844;28;20434;-69
2023/09/10 08:11:51;;;;;;;949.08;812.80;;;;;;;;;;5025638;28;20466;-69
2023/09/10 08:14:18;;;;;;;945.58;805.33;;;;;;;;;;5028452;28;20942;-67
2023/09/10 08:16:45;;;;;;;940.45;801.85;;;;;;;;;;5024987;28;20541;-69
2023/09/10 08:19:12;;;;;;;963.80;840.08;;;;;;;;;;5023148;28;20439;-69
2023/09/10 08:21:40;;;;;;;961.22;841.85;;;;;;;;;;5020125;28;20924;-68
2023/09/10 08:24:08;;;;;;;961.70;844.90;;;;;;;;;;5023741;28;20438;-68
2023/09/10 08:26:35;;;;;;;976.47;865.13;;;;;;;;;;5024736;28;21134;-69
2023/09/10 08:29:03;;;;;;;969.13;850.17;;;;;;;;;;5035701;28;21150;-67
2023/09/10 08:31:33;;;;;;;936.30;785.70;;;;;;;;;;5026151;28;20427;-69
2023/09/10 08:34:00;;;;;;;959.70;844.73;;;;;;;;;;5027562;28;20449;-69
2023/09/10 08:36:27;;;;;;;958.05;841.80;;;;;;;;;;5038117;28;20459;-68
2023/09/10 08:38:55;;;;;;;965.47;858.15;;;;;;;;;;5020647;28;20441;-69
2023/09/10 08:41:32;;;;;;;957.35;838.53;;;;;;;;;;5022754;28;20438;-68
2023/09/10 08:44:02;;;;;;;986.43;877.80;;;;;;;;;;5021000;28;20545;-68
2023/09/10 08:46:32;;;;;;;938.15;815.00;;;;;;;;;;5022791;28;20496;-69
2023/09/10 08:49:00;;;;;;;955.15;835.45;;;;;;;;;;5020117;28;20497;-68
2023/09/10 08:51:32;;;;;;;950.28;831.83;;;;;;;;;;5031674;28;20437;-68
2023/09/10 08:54:01;;;;;;;1032.28;921.30;;;;;;;;;;5026329;28;20514;-69
2023/09/10 08:56:29;;;;;;;986.07;877.57;;;;;;;;;;5021422;28;20434;-68
2023/09/10 08:58:57;;;;;;;1000.63;891.70;;;;;;;;;;5023925;28;20439;-69
2023/09/10 09:01:24;;;;;;;992.83;884.30;;;;;;;;;;5024451;28;20424;-68
2023/09/10 09:03:52;;;;;;;1032.10;921.83;;;;;;;;;;5024113;28;20457;-67
2023/09/10 09:06:22;;;;;;;971.78;864.50;;;;;;;;;;5015998;28;20918;-68
2023/09/10 09:08:50;;;;;;;964.72;857.90;;;;;;;;;;5023872;28;20427;-68
2023/09/10 09:11:21;;;;;;;980.92;873.20;;;;;;;;;;5037495;28;20433;-68
2023/09/10 09:13:52;;;;;;;968.50;861.28;;;;;;;;;;5020034;28;20512;-68
2023/09/10 09:16:23;;;;;;;956.60;842.80;;;;;;;;;;5017686;28;20446;-67
2023/09/10 09:18:51;;;;;;;960.63;854.10;;;;;;;;;;5026823;28;20439;-68
2023/09/10 09:21:19;;;;;;;962.40;855.80;;;;;;;;;;5023009;28;20454;-68
2023/09/10 09:23:50;;;;;;;951.97;841.63;;;;;;;;;;5024480;28;20446;-69
2023/09/10 09:26:18;;;;;;;959.80;853.40;;;;;;;;;;5021641;28;20465;-67
2023/09/10 09:28:46;;;;;;;951.95;833.65;;;;;;;;;;5023449;28;20522;-68
2023/09/10 09:31:13;;;;;;;957.00;843.85;;;;;;;;;;5031088;28;20434;-68
2023/09/10 09:33:41;;;;;;;972.15;864.75;;;;;;;;;;5025913;28;20493;-68
2023/09/10 09:36:15;;;;;;;826.80;635.97;;;;;;;;;;5021958;28;20441;-68
2023/09/10 09:38:43;;;;;;;675.83;433.17;;;;;;;;;;5028421;28;20422;-68
2023/09/10 09:41:11;;;;;;;856.00;640.33;;;;;;;;;;5027384;28;20434;-67
2023/09/10 09:43:38;;;;;;;1018.35;909.20;;;;;;;;;;5029714;28;20431;-68
2023/09/10 09:46:05;;;;;;;996.63;888.92;;;;;;;;;;5029399;28;20510;-67
2023/09/10 09:48:36;;;;;;;1027.53;917.67;;;;;;;;;;5034253;28;20425;-68
2023/09/10 09:51:05;;;;;;;938.67;830.92;;;;;;;;;;5031485;28;20431;-68
2023/09/10 09:53:33;;;;;;;1009.58;899.80;;;;;;;;;;5032928;28;20575;-67
2023/09/10 09:56:03;;;;;;;711.45;513.08;;;;;;;;;;5028444;28;20526;-69
2023/09/10 09:58:31;;;;;;;1059.07;947.20;;;;;;;;;;5032214;28;20951;-68
2023/09/10 10:00:58;;;;;;;1034.30;924.20;;;;;;;;;;5028940;28;20442;-67
2023/09/10 10:03:29;;;;;;;1033.63;923.78;;;;;;;;;;5029607;28;20427;-68
2023/09/10 10:05:56;;;;;;;1051.28;940.20;;;;;;;;;;5023639;28;20504;-67
2023/09/10 10:08:28;;;;;;;1103.63;987.00;;;;;;;;;;5028748;28;20426;-68
2023/09/10 10:10:58;;;;;;;680.90;424.05;;;;;;;;;;5028990;28;21581;-68
2023/09/10 10:13:26;;;;;;;720.85;551.03;;;;;;;;;;5029636;28;20442;-68
2023/09/10 10:15:54;;;;;;;744.22;541.15;;;;;;;;;;5031737;28;20529;-67
2023/09/10 10:18:23;;;;;;;787.63;610.15;;;;;;;;;;5026634;28;20513;-67
2023/09/10 10:20:50;;;;;;;698.55;470.58;;;;;;;;;;5029931;28;20434;-67
2023/09/10 10:23:18;;;;;;;710.63;500.20;;;;;;;;;;5027105;28;20978;-68
2023/09/10 10:26:06;;;;;;;879.22;738.10;;;;;;;;;;5025400;28;20435;-68
2023/09/10 10:28:35;;;;;;;1057.53;946.63;;;;;;;;;;5029431;28;20431;-67
2023/09/10 10:31:07;;;;;;;816.85;599.85;;;;;;;;;;5029109;28;20770;-66
2023/09/10 10:33:37;;;;;;;676.85;408.17;;;;;;;;;;5029258;28;20680;-68
2023/09/10 10:36:10;;;;;;;783.33;595.03;;;;;;;;;;5028672;28;20566;-68
2023/09/10 10:38:40;;;;;;;715.13;529.10;;;;;;;;;;5029388;28;20530;-69
2023/09/10 10:41:13;;;;;;;714.65;508.70;;;;;;;;;;5027586;28;20449;-69
2023/09/10 10:43:42;;;;;;;711.33;483.80;;;;;;;;;;5026810;28;20544;-68
2023/09/10 10:46:09;;;;;;;712.92;496.77;;;;;;;;;;5028566;28;20897;-69
2023/09/10 10:48:41;;;;;;;707.03;440.85;;;;;;;;;;5029266;28;20427;-69
2023/09/10 10:51:10;;;;;;;711.53;461.67;;;;;;;;;;5028455;28;20430;-69
2023/09/10 10:53:37;;;;;;;713.50;462.63;;;;;;;;;;5020635;28;20921;-69
2023/09/10 10:56:05;;;;;;;611.63;262.58;;;;;;;;;;5058725;28;20878;-68
2023/09/10 10:58:41;;;;;;;695.45;425.00;;;;;;;;;;5027179;28;20522;-69
2023/09/10 11:01:12;;;;;;;1114.20;995.78;;;;;;;;;;5041266;28;20550;-69
2023/09/10 11:03:39;;;;;;;1122.40;999.90;;;;;;;;;;5026555;28;20427;-69
2023/09/10 11:06:07;;;;;;;1110.63;995.38;;;;;;;;;;5029207;28;20435;-70
2023/09/10 11:08:36;;;;;;;1089.63;977.05;;;;;;;;;;5020784;28;20578;-67
2023/09/10 11:11:05;;;;;;;1052.13;941.92;;;;;;;;;;5024786;28;20458;-69
2023/09/10 11:13:32;;;;;;;1169.97;999.90;;;;;;;;;;5018974;28;20488;-69
2023/09/10 11:16:06;;;;;;;1153.40;999.90;;;;;;;;;;5023387;28;20431;-69
2023/09/10 11:18:36;;;;;;;1175.13;999.90;;;;;;;;;;5046687;28;20434;-69
2023/09/10 11:21:24;;;;;;;1172.03;999.90;;;;;;;;;;5024553;28;20439;-69
2023/09/10 11:23:58;;;;;;;1176.85;999.90;;;;;;;;;;5026788;28;20502;-69
2023/09/10 11:26:29;;;;;;;1175.57;999.90;;;;;;;;;;5028888;28;20514;-69
2023/09/10 11:28:58;;;;;;;1178.03;999.90;;;;;;;;;;5025691;28;20458;-69
2023/09/10 11:31:38;;;;;;;1169.07;999.90;;;;;;;;;;5027979;28;20497;-69
2023/09/10 11:34:19;;;;;;;1176.82;999.90;;;;;;;;;;5022281;28;20441;-69
2023/09/10 11:36:51;;;;;;;1149.28;999.90;;;;;;;;;;5020324;28;20794;-69
2023/09/10 11:39:19;;;;;;;1178.78;999.90;;;;;;;;;;5024999;28;20443;-68
2023/09/10 11:41:47;;;;;;;1163.55;999.90;;;;;;;;;;5023661;28;21107;-69
2023/09/10 11:44:15;;;;;;;1195.97;999.90;;;;;;;;;;5017941;28;20427;-69
2023/09/10 11:46:44;;;;;;;1167.70;999.90;;;;;;;;;;5025155;28;20526;-69
2023/09/10 11:49:14;;;;;;;1152.47;999.90;;;;;;;;;;5022511;28;20488;-69
2023/09/10 11:51:45;;;;;;;1149.90;999.90;;;;;;;;;;5025027;28;21052;-69
2023/09/10 11:54:16;;;;;;;1152.88;999.90;;;;;;;;;;5021747;28;20860;-69
2023/09/10 11:56:55;;;;;;;1175.22;999.90;;;;;;;;;;5032056;28;20472;-70
2023/09/10 11:59:32;;;;;;;1175.78;999.90;;;;;;;;;;5022810;28;20520;-70
2023/09/10 12:02:00;;;;;;;1186.05;999.90;;;;;;;;;;5023718;28;20915;-69
2023/09/10 12:04:28;;;;;;;1196.40;999.90;;;;;;;;;;5025028;28;20480;-70
2023/09/10 12:06:55;;;;;;;1189.50;999.90;;;;;;;;;;5024079;28;20433;-69
2023/09/10 12:09:23;;;;;;;1183.50;999.90;;;;;;;;;;5025221;28;21108;-70
2023/09/10 12:11:53;;;;;;;1174.80;999.90;;;;;;;;;;5024719;28;20433;-69
2023/09/10 12:14:21;;;;;;;1225.30;999.90;;;;;;;;;;5018733;28;20431;-68
2023/09/10 12:16:52;;;;;;;1209.68;999.90;;;;;;;;;;5022605;28;20435;-70
2023/09/10 12:19:19;;;;;;;1121.65;999.90;;;;;;;;;;5019545;28;20942;-69
2023/09/10 12:21:47;;;;;;;1116.15;999.90;;;;;;;;;;5026190;28;20524;-68
2023/09/10 12:24:17;;;;;;;1226.60;999.90;;;;;;;;;;5023869;28;20458;-68
2023/09/10 12:26:44;;;;;;;1225.97;999.90;;;;;;;;;;5023714;28;20445;-69
2023/09/10 12:29:14;;;;;;;1215.75;999.90;;;;;;;;;;5029408;28;20473;-69
2023/09/10 12:31:41;;;;;;;1210.47;999.90;;;;;;;;;;5020384;28;20442;-69
2023/09/10 12:34:09;;;;;;;1237.72;999.90;;;;;;;;;;5016870;28;21110;-68
2023/09/10 12:36:37;;;;;;;1300.20;999.90;;;;;;;;;;5016634;28;20474;-68
2023/09/10 12:39:23;;;;;;;1252.07;999.90;;;;;;;;;;5013404;28;20820;-69
2023/09/10 12:41:52;;;;;;;1304.13;999.90;;;;;;;;;;5021398;28;20921;-69
2023/09/10 12:44:23;;;;;;;1290.30;999.90;;;;;;;;;;5021442;28;20435;-68
2023/09/10 12:46:50;;;;;;;809.40;739.78;;;;;;;;;;5027145;28;20570;-69
2023/09/10 12:49:17;;;;;;;98.82;91.03;;;;;;;;;;5029277;28;20793;-69
2023/09/10 12:51:45;;;;;;;659.15;599.55;;;;;;;;;;5028756;28;20429;-69
2023/09/10 12:54:15;;;;;;;9.77;8.90;;;;;;;;;;5027070;28;20431;-69
2023/09/10 12:56:42;;;;;;;190.50;172.23;;;;;;;;;;5023131;28;20435;-70
2023/09/10 12:59:11;;;;;;;1187.00;999.90;;;;;;;;;;5026910;28;20434;-69
2023/09/10 13:01:39;;;;;;;6.95;3.08;;;;;;;;;;5024669;28;21257;-69
2023/09/10 13:04:06;;;;;;;6.90;3.67;;;;;;;;;;5028393;28;20457;-69
2023/09/10 13:06:34;;;;;;;1303.63;999.90;;;;;;;;;;5039372;28;20435;-69
2023/09/10 13:09:04;;;;;;;1144.75;999.90;;;;;;;;;;5056137;28;20435;-69
2023/09/10 13:11:36;;;;;;;1190.88;999.90;;;;;;;;;;5026461;28;20453;-69
2023/09/10 13:14:04;;;;;;;983.95;893.97;;;;;;;;;;5028225;28;20909;-69
2023/09/10 13:16:31;;;;;;;1228.85;999.90;;;;;;;;;;5032827;28;20435;-69
2023/09/10 13:18:58;;;;;;;1193.40;999.90;;;;;;;;;;5022873;28;20445;-68
2023/09/10 13:21:27;;;;;;;699.83;637.50;;;;;;;;;;5025025;28;20442;-70
2023/09/10 13:23:56;;;;;;;927.08;848.83;;;;;;;;;;5031438;28;20473;-69
2023/09/10 13:26:24;;;;;;;1266.27;999.90;;;;;;;;;;5027969;28;20426;-67
2023/09/10 13:28:51;;;;;;;1286.50;999.90;;;;;;;;;;5026245;28;20425;-69
2023/09/10 13:34:50;;;;;;;1231.70;999.90;;;;;;;;;;5014449;28;20401;-69
2023/09/10 13:37:17;;;;;;;1292.90;999.90;;;;;;;;;;5023873;28;20441;-69
2023/09/10 13:39:44;;;;;;;698.78;637.42;;;;;;;;;;5027836;28;20994;-69
2023/09/10 13:42:11;;;;;;;9.10;5.43;;;;;;;;;;5023010;28;20907;-69
2023/09/10 13:44:42;;;;;;;7.88;5.15;;;;;;;;;;5025370;28;20621;-68
2023/09/10 13:47:09;;;;;;;391.83;355.92;;;;;;;;;;5022326;28;20508;-69
2023/09/10 13:49:36;;;;;;;328.20;297.33;;;;;;;;;;5022787;28;20547;-70
2023/09/10 13:52:04;;;;;;;132.15;120.95;;;;;;;;;;5026049;28;20512;-69
2023/09/10 13:54:31;;;;;;;122.95;112.47;;;;;;;;;;5028868;28;20557;-67
2023/09/10 13:56:58;;;;;;;926.95;846.15;;;;;;;;;;5022968;28;20438;-69
2023/09/10 13:59:25;;;;;;;1158.40;999.90;;;;;;;;;;5054764;28;20529;-69
2023/09/10 14:01:53;;;;;;;19.83;11.65;;;;;;;;;;5025802;28;20466;-69
2023/09/10 14:04:25;;;;;;;469.37;426.97;;;;;;;;;;5026333;28;20443;-66
2023/09/10 14:06:53;;;;;;;376.15;343.10;;;;;;;;;;5022766;28;20423;-68
2023/09/10 14:09:20;;;;;;;658.95;599.03;;;;;;;;;;5027395;28;20517;-68